sensor_id;sensor_type;location;lat;lon;timestamp;P1;durP1;ratioP1;P2;durP2;ratioP2
24677;SDS011;12800;53.094;8.778;2022-12-18T00:01:03;26.13;;;16.00;;
24677;SDS011;12800;53.094;8.778;2022-12-18T00:03:33;26.93;;;15.70;;
24677;SDS011;12800;53.094;8.778;2022-12-18T00:05:59;26.10;;;16.67;;
24677;SDS011;12800;53.094;8.778;2022-12-18T00:08:24;49.40;;;29.23;;
24677;SDS011;12800;53.094;8.778;2022-12-18T00:10:50;37.83;;;21.73;;
24677;SDS011;12800;53.094;8.778;2022-12-18T00:13:16;26.80;;;17.50;;
24677;SDS011;12800;53.094;8.778;2022-12-18T00:15:41;28.83;;;17.23;;
24677;SDS011;12800;53.094;8.778;2022-12-18T00:18:07;23.97;;;14.97;;
24677;SDS011;12800;53.094;8.778;2022-12-18T00:20:37;24.47;;;15.40;;
24677;SDS011;12800;53.094;8.778;2022-12-18T00:23:03;28.03;;;16.37;;
24677;SDS011;12800;53.094;8.778;2022-12-18T00:25:29;23.17;;;15.33;;
24677;SDS011;12800;53.094;8.778;2022-12-18T00:27:57;25.67;;;16.27;;
24677;SDS011;12800;53.094;8.778;2022-12-18T00:30:22;24.63;;;15.37;;
24677;SDS011;12800;53.094;8.778;2022-12-18T00:32:48;24.20;;;15.33;;
24677;SDS011;12800;53.094;8.778;2022-12-18T00:35:14;24.93;;;15.20;;
24677;SDS011;12800;53.094;8.778;2022-12-18T00:37:39;23.60;;;14.30;;
24677;SDS011;12800;53.094;8.778;2022-12-18T00:40:05;23.80;;;15.07;;
24677;SDS011;12800;53.094;8.778;2022-12-18T00:42:31;27.60;;;15.70;;
24677;SDS011;12800;53.094;8.778;2022-12-18T00:45:15;25.70;;;15.13;;
24677;SDS011;12800;53.094;8.778;2022-12-18T00:47:41;25.40;;;15.57;;
24677;SDS011;12800;53.094;8.778;2022-12-18T00:50:07;26.37;;;15.77;;
24677;SDS011;12800;53.094;8.778;2022-12-18T00:52:34;22.90;;;14.53;;
24677;SDS011;12800;53.094;8.778;2022-12-18T00:54:59;25.13;;;15.67;;
24677;SDS011;12800;53.094;8.778;2022-12-18T00:57:25;25.40;;;15.07;;
24677;SDS011;12800;53.094;8.778;2022-12-18T00:59:50;25.20;;;14.80;;
24677;SDS011;12800;53.094;8.778;2022-12-18T01:02:16;19.63;;;13.00;;
24677;SDS011;12800;53.094;8.778;2022-12-18T01:04:42;27.07;;;13.80;;
24677;SDS011;12800;53.094;8.778;2022-12-18T01:07:07;20.50;;;13.30;;
24677;SDS011;12800;53.094;8.778;2022-12-18T01:09:33;21.23;;;13.87;;
24677;SDS011;12800;53.094;8.778;2022-12-18T01:11:59;26.80;;;14.07;;
24677;SDS011;12800;53.094;8.778;2022-12-18T01:14:25;23.23;;;13.50;;
24677;SDS011;12800;53.094;8.778;2022-12-18T01:16:50;20.50;;;12.37;;
24677;SDS011;12800;53.094;8.778;2022-12-18T01:19:16;21.03;;;12.70;;
24677;SDS011;12800;53.094;8.778;2022-12-18T01:21:42;17.57;;;12.63;;
24677;SDS011;12800;53.094;8.778;2022-12-18T01:24:07;21.90;;;13.40;;
24677;SDS011;12800;53.094;8.778;2022-12-18T01:26:36;22.37;;;12.23;;
24677;SDS011;12800;53.094;8.778;2022-12-18T01:29:02;21.43;;;12.90;;
24677;SDS011;12800;53.094;8.778;2022-12-18T01:31:28;19.03;;;11.23;;
24677;SDS011;12800;53.094;8.778;2022-12-18T01:33:56;17.93;;;12.07;;
24677;SDS011;12800;53.094;8.778;2022-12-18T01:36:30;19.70;;;13.30;;
24677;SDS011;12800;53.094;8.778;2022-12-18T01:38:59;19.67;;;11.87;;
24677;SDS011;12800;53.094;8.778;2022-12-18T01:41:45;19.43;;;11.93;;
24677;SDS011;12800;53.094;8.778;2022-12-18T01:49:48;17.57;;;11.13;;
24677;SDS011;12800;53.094;8.778;2022-12-18T01:52:14;16.30;;;11.30;;
24677;SDS011;12800;53.094;8.778;2022-12-18T01:54:41;17.83;;;11.30;;
24677;SDS011;12800;53.094;8.778;2022-12-18T01:57:08;16.27;;;11.80;;
24677;SDS011;12800;53.094;8.778;2022-12-18T01:59:34;18.90;;;11.77;;
24677;SDS011;12800;53.094;8.778;2022-12-18T02:02:01;20.27;;;11.30;;
24677;SDS011;12800;53.094;8.778;2022-12-18T02:04:27;21.13;;;11.43;;
24677;SDS011;12800;53.094;8.778;2022-12-18T02:06:59;19.87;;;11.07;;
24677;SDS011;12800;53.094;8.778;2022-12-18T02:12:25;20.10;;;11.23;;
24677;SDS011;12800;53.094;8.778;2022-12-18T02:15:32;18.50;;;11.70;;
24677;SDS011;12800;53.094;8.778;2022-12-18T02:17:57;17.07;;;10.23;;
24677;SDS011;12800;53.094;8.778;2022-12-18T02:20:35;16.23;;;10.73;;
24677;SDS011;12800;53.094;8.778;2022-12-18T02:23:21;20.00;;;10.73;;
24677;SDS011;12800;53.094;8.778;2022-12-18T02:28:53;17.17;;;10.23;;
24677;SDS011;12800;53.094;8.778;2022-12-18T02:31:25;15.67;;;9.87;;
24677;SDS011;12800;53.094;8.778;2022-12-18T02:33:55;12.90;;;9.83;;
24677;SDS011;12800;53.094;8.778;2022-12-18T02:36:24;17.73;;;10.63;;
24677;SDS011;12800;53.094;8.778;2022-12-18T02:38:52;14.27;;;9.17;;
24677;SDS011;12800;53.094;8.778;2022-12-18T02:41:19;15.13;;;9.33;;
24677;SDS011;12800;53.094;8.778;2022-12-18T02:43:49;16.33;;;10.07;;
24677;SDS011;12800;53.094;8.778;2022-12-18T02:49:21;15.37;;;9.77;;
24677;SDS011;12800;53.094;8.778;2022-12-18T02:57:18;18.30;;;9.90;;
24677;SDS011;12800;53.094;8.778;2022-12-18T02:59:56;16.77;;;9.90;;
24677;SDS011;12800;53.094;8.778;2022-12-18T03:05:21;18.07;;;9.77;;
24677;SDS011;12800;53.094;8.778;2022-12-18T03:08:03;17.47;;;8.67;;
24677;SDS011;12800;53.094;8.778;2022-12-18T03:10:39;18.43;;;9.97;;
24677;SDS011;12800;53.094;8.778;2022-12-18T03:13:15;13.00;;;8.40;;
24677;SDS011;12800;53.094;8.778;2022-12-18T03:15:49;15.37;;;9.03;;
24677;SDS011;12800;53.094;8.778;2022-12-18T03:19:01;13.83;;;9.20;;
24677;SDS011;12800;53.094;8.778;2022-12-18T03:21:10;14.67;;;8.63;;
24677;SDS011;12800;53.094;8.778;2022-12-18T03:23:42;15.50;;;9.33;;
24677;SDS011;12800;53.094;8.778;2022-12-18T03:26:16;11.20;;;8.30;;
24677;SDS011;12800;53.094;8.778;2022-12-18T03:28:51;13.80;;;8.27;;
24677;SDS011;12800;53.094;8.778;2022-12-18T03:31:39;14.10;;;8.33;;
24677;SDS011;12800;53.094;8.778;2022-12-18T03:34:15;12.67;;;8.40;;
24677;SDS011;12800;53.094;8.778;2022-12-18T03:36:46;14.73;;;7.97;;
24677;SDS011;12800;53.094;8.778;2022-12-18T03:39:13;13.70;;;9.10;;
24677;SDS011;12800;53.094;8.778;2022-12-18T03:42:13;11.33;;;7.50;;
24677;SDS011;12800;53.094;8.778;2022-12-18T03:47:23;14.23;;;9.30;;
24677;SDS011;12800;53.094;8.778;2022-12-18T03:52:56;15.63;;;8.67;;
24677;SDS011;12800;53.094;8.778;2022-12-18T03:55:39;13.23;;;8.27;;
24677;SDS011;12800;53.094;8.778;2022-12-18T03:58:06;14.87;;;8.00;;
24677;SDS011;12800;53.094;8.778;2022-12-18T04:00:34;13.80;;;8.33;;
24677;SDS011;12800;53.094;8.778;2022-12-18T04:03:00;13.03;;;8.30;;
24677;SDS011;12800;53.094;8.778;2022-12-18T04:05:27;14.00;;;8.33;;
24677;SDS011;12800;53.094;8.778;2022-12-18T04:07:55;14.43;;;9.17;;
24677;SDS011;12800;53.094;8.778;2022-12-18T04:10:22;12.80;;;7.70;;
24677;SDS011;12800;53.094;8.778;2022-12-18T04:12:47;13.30;;;7.73;;
24677;SDS011;12800;53.094;8.778;2022-12-18T04:15:13;15.03;;;8.40;;
24677;SDS011;12800;53.094;8.778;2022-12-18T04:17:42;14.17;;;7.63;;
24677;SDS011;12800;53.094;8.778;2022-12-18T04:20:13;14.47;;;7.77;;
24677;SDS011;12800;53.094;8.778;2022-12-18T04:22:39;11.33;;;7.00;;
24677;SDS011;12800;53.094;8.778;2022-12-18T04:25:05;10.03;;;6.83;;
24677;SDS011;12800;53.094;8.778;2022-12-18T04:27:31;12.40;;;7.37;;
24677;SDS011;12800;53.094;8.778;2022-12-18T04:29:56;14.53;;;7.53;;
24677;SDS011;12800;53.094;8.778;2022-12-18T04:32:22;11.10;;;7.93;;
24677;SDS011;12800;53.094;8.778;2022-12-18T04:34:47;14.07;;;7.57;;
24677;SDS011;12800;53.094;8.778;2022-12-18T04:37:13;7.20;;;6.20;;
24677;SDS011;12800;53.094;8.778;2022-12-18T04:39:39;11.70;;;7.37;;
24677;SDS011;12800;53.094;8.778;2022-12-18T04:42:04;14.20;;;7.47;;
24677;SDS011;12800;53.094;8.778;2022-12-18T04:44:30;11.43;;;6.73;;
24677;SDS011;12800;53.094;8.778;2022-12-18T04:46:55;14.33;;;7.83;;
24677;SDS011;12800;53.094;8.778;2022-12-18T04:49:21;11.77;;;7.60;;
24677;SDS011;12800;53.094;8.778;2022-12-18T04:51:47;16.53;;;7.73;;
24677;SDS011;12800;53.094;8.778;2022-12-18T04:54:12;11.07;;;6.90;;
24677;SDS011;12800;53.094;8.778;2022-12-18T04:56:38;13.43;;;7.63;;
24677;SDS011;12800;53.094;8.778;2022-12-18T04:59:04;12.40;;;7.57;;
24677;SDS011;12800;53.094;8.778;2022-12-18T05:01:30;8.60;;;5.43;;
24677;SDS011;12800;53.094;8.778;2022-12-18T05:03:58;11.40;;;6.63;;
24677;SDS011;12800;53.094;8.778;2022-12-18T05:06:24;10.97;;;6.10;;
24677;SDS011;12800;53.094;8.778;2022-12-18T05:08:49;10.70;;;6.40;;
24677;SDS011;12800;53.094;8.778;2022-12-18T05:11:15;12.03;;;6.83;;
24677;SDS011;12800;53.094;8.778;2022-12-18T05:13:41;13.57;;;6.93;;
24677;SDS011;12800;53.094;8.778;2022-12-18T05:16:07;12.67;;;7.07;;
24677;SDS011;12800;53.094;8.778;2022-12-18T05:18:33;11.70;;;7.37;;
24677;SDS011;12800;53.094;8.778;2022-12-18T05:20:59;9.70;;;6.77;;
24677;SDS011;12800;53.094;8.778;2022-12-18T05:23:25;12.40;;;6.97;;
24677;SDS011;12800;53.094;8.778;2022-12-18T05:25:52;10.93;;;6.47;;
24677;SDS011;12800;53.094;8.778;2022-12-18T05:28:17;12.43;;;6.63;;
24677;SDS011;12800;53.094;8.778;2022-12-18T05:30:47;11.03;;;6.47;;
24677;SDS011;12800;53.094;8.778;2022-12-18T05:33:16;11.10;;;6.57;;
24677;SDS011;12800;53.094;8.778;2022-12-18T05:35:42;9.13;;;6.37;;
24677;SDS011;12800;53.094;8.778;2022-12-18T05:38:08;12.10;;;6.60;;
24677;SDS011;12800;53.094;8.778;2022-12-18T05:40:34;8.40;;;6.20;;
24677;SDS011;12800;53.094;8.778;2022-12-18T05:43:00;11.23;;;6.53;;
24677;SDS011;12800;53.094;8.778;2022-12-18T05:45:25;11.60;;;6.37;;
24677;SDS011;12800;53.094;8.778;2022-12-18T05:47:51;10.40;;;6.37;;
24677;SDS011;12800;53.094;8.778;2022-12-18T05:50:17;9.50;;;6.53;;
24677;SDS011;12800;53.094;8.778;2022-12-18T05:52:42;9.20;;;6.97;;
24677;SDS011;12800;53.094;8.778;2022-12-18T05:55:08;10.37;;;6.73;;
24677;SDS011;12800;53.094;8.778;2022-12-18T05:57:34;12.07;;;6.57;;
24677;SDS011;12800;53.094;8.778;2022-12-18T05:59:59;8.97;;;6.40;;
24677;SDS011;12800;53.094;8.778;2022-12-18T06:02:25;10.17;;;6.13;;
24677;SDS011;12800;53.094;8.778;2022-12-18T06:04:50;10.40;;;5.93;;
24677;SDS011;12800;53.094;8.778;2022-12-18T06:07:16;8.93;;;5.70;;
24677;SDS011;12800;53.094;8.778;2022-12-18T06:09:42;11.37;;;7.27;;
24677;SDS011;12800;53.094;8.778;2022-12-18T06:12:08;11.10;;;6.40;;
24677;SDS011;12800;53.094;8.778;2022-12-18T06:14:34;8.63;;;6.27;;
24677;SDS011;12800;53.094;8.778;2022-12-18T06:16:59;8.37;;;6.00;;
24677;SDS011;12800;53.094;8.778;2022-12-18T06:19:25;9.97;;;6.57;;
24677;SDS011;12800;53.094;8.778;2022-12-18T06:21:50;8.70;;;5.77;;
24677;SDS011;12800;53.094;8.778;2022-12-18T06:24:16;10.57;;;6.13;;
24677;SDS011;12800;53.094;8.778;2022-12-18T06:26:42;8.63;;;5.97;;
24677;SDS011;12800;53.094;8.778;2022-12-18T06:29:07;12.60;;;6.47;;
24677;SDS011;12800;53.094;8.778;2022-12-18T06:31:33;12.33;;;6.67;;
24677;SDS011;12800;53.094;8.778;2022-12-18T06:33:59;11.87;;;6.57;;
24677;SDS011;12800;53.094;8.778;2022-12-18T06:36:31;8.90;;;6.27;;
24677;SDS011;12800;53.094;8.778;2022-12-18T06:38:58;8.50;;;5.27;;
24677;SDS011;12800;53.094;8.778;2022-12-18T06:41:23;8.90;;;5.80;;
24677;SDS011;12800;53.094;8.778;2022-12-18T06:43:49;8.83;;;5.77;;
24677;SDS011;12800;53.094;8.778;2022-12-18T06:46:15;13.27;;;6.60;;
24677;SDS011;12800;53.094;8.778;2022-12-18T06:48:41;7.90;;;5.60;;
24677;SDS011;12800;53.094;8.778;2022-12-18T06:51:06;9.97;;;5.97;;
24677;SDS011;12800;53.094;8.778;2022-12-18T06:53:32;9.60;;;6.07;;
24677;SDS011;12800;53.094;8.778;2022-12-18T06:56:05;9.33;;;6.17;;
24677;SDS011;12800;53.094;8.778;2022-12-18T06:58:32;10.20;;;5.83;;
24677;SDS011;12800;53.094;8.778;2022-12-18T07:01:01;8.93;;;5.50;;
24677;SDS011;12800;53.094;8.778;2022-12-18T07:03:32;9.60;;;5.60;;
24677;SDS011;12800;53.094;8.778;2022-12-18T07:05:58;8.93;;;5.60;;
24677;SDS011;12800;53.094;8.778;2022-12-18T07:08:24;9.90;;;5.93;;
24677;SDS011;12800;53.094;8.778;2022-12-18T07:10:50;9.77;;;5.80;;
24677;SDS011;12800;53.094;8.778;2022-12-18T07:13:16;7.77;;;5.20;;
24677;SDS011;12800;53.094;8.778;2022-12-18T07:15:42;11.67;;;5.20;;
24677;SDS011;12800;53.094;8.778;2022-12-18T07:18:08;10.97;;;6.20;;
24677;SDS011;12800;53.094;8.778;2022-12-18T07:20:34;11.73;;;6.80;;
24677;SDS011;12800;53.094;8.778;2022-12-18T07:23:03;10.27;;;5.77;;
24677;SDS011;12800;53.094;8.778;2022-12-18T07:25:30;9.93;;;6.03;;
24677;SDS011;12800;53.094;8.778;2022-12-18T07:28:02;10.00;;;6.43;;
24677;SDS011;12800;53.094;8.778;2022-12-18T07:30:28;9.80;;;5.40;;
24677;SDS011;12800;53.094;8.778;2022-12-18T07:32:54;9.67;;;5.97;;
24677;SDS011;12800;53.094;8.778;2022-12-18T07:35:19;9.00;;;5.90;;
24677;SDS011;12800;53.094;8.778;2022-12-18T07:37:45;11.13;;;6.30;;
24677;SDS011;12800;53.094;8.778;2022-12-18T07:40:11;10.47;;;6.23;;
24677;SDS011;12800;53.094;8.778;2022-12-18T07:42:37;10.57;;;6.40;;
24677;SDS011;12800;53.094;8.778;2022-12-18T07:45:02;9.80;;;5.83;;
24677;SDS011;12800;53.094;8.778;2022-12-18T07:47:34;12.33;;;6.70;;
24677;SDS011;12800;53.094;8.778;2022-12-18T07:50:01;11.37;;;5.77;;
24677;SDS011;12800;53.094;8.778;2022-12-18T07:52:28;10.10;;;6.17;;
24677;SDS011;12800;53.094;8.778;2022-12-18T07:54:53;11.10;;;6.97;;
24677;SDS011;12800;53.094;8.778;2022-12-18T07:57:20;11.13;;;6.10;;
24677;SDS011;12800;53.094;8.778;2022-12-18T07:59:45;10.77;;;7.00;;
24677;SDS011;12800;53.094;8.778;2022-12-18T08:02:11;9.87;;;5.87;;
24677;SDS011;12800;53.094;8.778;2022-12-18T08:04:37;9.30;;;5.93;;
24677;SDS011;12800;53.094;8.778;2022-12-18T08:07:02;10.23;;;6.43;;
24677;SDS011;12800;53.094;8.778;2022-12-18T08:09:28;11.97;;;6.87;;
24677;SDS011;12800;53.094;8.778;2022-12-18T08:11:53;11.70;;;7.10;;
24677;SDS011;12800;53.094;8.778;2022-12-18T08:14:19;8.87;;;5.93;;
24677;SDS011;12800;53.094;8.778;2022-12-18T08:16:45;9.27;;;6.33;;
24677;SDS011;12800;53.094;8.778;2022-12-18T08:19:10;9.57;;;5.57;;
24677;SDS011;12800;53.094;8.778;2022-12-18T08:21:36;9.60;;;6.33;;
24677;SDS011;12800;53.094;8.778;2022-12-18T08:24:02;9.87;;;5.90;;
24677;SDS011;12800;53.094;8.778;2022-12-18T08:26:28;10.77;;;7.00;;
24677;SDS011;12800;53.094;8.778;2022-12-18T08:28:55;8.90;;;6.27;;
24677;SDS011;12800;53.094;8.778;2022-12-18T08:31:23;9.97;;;6.13;;
24677;SDS011;12800;53.094;8.778;2022-12-18T08:33:50;12.80;;;7.60;;
24677;SDS011;12800;53.094;8.778;2022-12-18T08:36:17;10.07;;;6.00;;
24677;SDS011;12800;53.094;8.778;2022-12-18T08:38:43;10.33;;;6.03;;
24677;SDS011;12800;53.094;8.778;2022-12-18T08:41:09;11.07;;;5.90;;
24677;SDS011;12800;53.094;8.778;2022-12-18T08:43:37;10.67;;;6.37;;
24677;SDS011;12800;53.094;8.778;2022-12-18T08:46:22;12.90;;;6.97;;
24677;SDS011;12800;53.094;8.778;2022-12-18T08:48:50;9.77;;;6.93;;
24677;SDS011;12800;53.094;8.778;2022-12-18T08:51:17;12.60;;;6.50;;
24677;SDS011;12800;53.094;8.778;2022-12-18T08:53:43;12.00;;;6.97;;
24677;SDS011;12800;53.094;8.778;2022-12-18T08:56:09;8.90;;;6.40;;
24677;SDS011;12800;53.094;8.778;2022-12-18T08:58:35;15.93;;;6.83;;
24677;SDS011;12800;53.094;8.778;2022-12-18T09:01:01;11.13;;;6.30;;
24677;SDS011;12800;53.094;8.778;2022-12-18T09:03:28;11.00;;;6.40;;
24677;SDS011;12800;53.094;8.778;2022-12-18T09:05:54;11.77;;;5.93;;
24677;SDS011;12800;53.094;8.778;2022-12-18T09:08:20;9.23;;;6.47;;
24677;SDS011;12800;53.094;8.778;2022-12-18T09:10:46;14.80;;;6.10;;
24677;SDS011;12800;53.094;8.778;2022-12-18T09:13:14;12.53;;;6.90;;
24677;SDS011;12800;53.094;8.778;2022-12-18T09:15:46;13.67;;;9.43;;
24677;SDS011;12800;53.094;8.778;2022-12-18T09:18:14;12.63;;;6.53;;
24677;SDS011;12800;53.094;8.778;2022-12-18T09:20:40;9.40;;;6.40;;
24677;SDS011;12800;53.094;8.778;2022-12-18T09:23:06;14.07;;;7.33;;
24677;SDS011;12800;53.094;8.778;2022-12-18T09:25:33;13.10;;;7.70;;
24677;SDS011;12800;53.094;8.778;2022-12-18T09:28:00;11.83;;;6.83;;
24677;SDS011;12800;53.094;8.778;2022-12-18T09:30:31;8.57;;;5.90;;
24677;SDS011;12800;53.094;8.778;2022-12-18T09:32:59;8.97;;;6.27;;
24677;SDS011;12800;53.094;8.778;2022-12-18T09:35:25;9.97;;;6.33;;
24677;SDS011;12800;53.094;8.778;2022-12-18T09:37:52;12.13;;;8.20;;
24677;SDS011;12800;53.094;8.778;2022-12-18T09:40:19;9.80;;;6.63;;
24677;SDS011;12800;53.094;8.778;2022-12-18T09:42:50;11.87;;;6.67;;
24677;SDS011;12800;53.094;8.778;2022-12-18T09:45:20;9.00;;;6.00;;
24677;SDS011;12800;53.094;8.778;2022-12-18T09:47:47;10.90;;;6.53;;
24677;SDS011;12800;53.094;8.778;2022-12-18T09:50:31;8.57;;;6.03;;
24677;SDS011;12800;53.094;8.778;2022-12-18T09:53:05;10.27;;;6.37;;
24677;SDS011;12800;53.094;8.778;2022-12-18T09:55:38;9.43;;;5.97;;
24677;SDS011;12800;53.094;8.778;2022-12-18T09:58:13;10.40;;;6.63;;
24677;SDS011;12800;53.094;8.778;2022-12-18T10:00:55;11.57;;;6.83;;
24677;SDS011;12800;53.094;8.778;2022-12-18T10:03:21;10.57;;;6.90;;
24677;SDS011;12800;53.094;8.778;2022-12-18T10:05:51;9.00;;;5.80;;
24677;SDS011;12800;53.094;8.778;2022-12-18T10:20:03;10.20;;;6.50;;
24677;SDS011;12800;53.094;8.778;2022-12-18T10:22:40;10.17;;;7.37;;
24677;SDS011;12800;53.094;8.778;2022-12-18T10:28:12;9.73;;;6.47;;
24677;SDS011;12800;53.094;8.778;2022-12-18T10:30:40;16.73;;;8.60;;
24677;SDS011;12800;53.094;8.778;2022-12-18T10:33:10;9.53;;;6.20;;
24677;SDS011;12800;53.094;8.778;2022-12-18T10:35:41;12.33;;;6.27;;
24677;SDS011;12800;53.094;8.778;2022-12-18T10:45:57;9.80;;;6.80;;
24677;SDS011;12800;53.094;8.778;2022-12-18T10:48:25;11.10;;;6.90;;
24677;SDS011;12800;53.094;8.778;2022-12-18T10:50:51;10.80;;;7.07;;
24677;SDS011;12800;53.094;8.778;2022-12-18T10:53:24;10.53;;;7.30;;
24677;SDS011;12800;53.094;8.778;2022-12-18T10:55:53;11.27;;;7.77;;
24677;SDS011;12800;53.094;8.778;2022-12-18T10:58:22;9.30;;;6.57;;
24677;SDS011;12800;53.094;8.778;2022-12-18T11:01:13;12.07;;;6.97;;
24677;SDS011;12800;53.094;8.778;2022-12-18T11:06:09;12.50;;;7.90;;
24677;SDS011;12800;53.094;8.778;2022-12-18T11:08:37;11.33;;;7.33;;
24677;SDS011;12800;53.094;8.778;2022-12-18T11:11:04;8.70;;;6.57;;
24677;SDS011;12800;53.094;8.778;2022-12-18T11:13:39;10.93;;;6.27;;
24677;SDS011;12800;53.094;8.778;2022-12-18T11:16:05;10.67;;;6.97;;
24677;SDS011;12800;53.094;8.778;2022-12-18T11:18:34;9.37;;;6.67;;
24677;SDS011;12800;53.094;8.778;2022-12-18T11:21:11;11.57;;;6.90;;
24677;SDS011;12800;53.094;8.778;2022-12-18T11:23:44;9.03;;;6.57;;
24677;SDS011;12800;53.094;8.778;2022-12-18T11:26:14;8.83;;;5.83;;
24677;SDS011;12800;53.094;8.778;2022-12-18T11:28:47;11.77;;;6.33;;
24677;SDS011;12800;53.094;8.778;2022-12-18T11:31:29;7.63;;;6.17;;
24677;SDS011;12800;53.094;8.778;2022-12-18T11:34:04;9.30;;;5.87;;
24677;SDS011;12800;53.094;8.778;2022-12-18T11:36:36;9.53;;;6.40;;
24677;SDS011;12800;53.094;8.778;2022-12-18T11:39:08;8.30;;;6.27;;
24677;SDS011;12800;53.094;8.778;2022-12-18T11:41:59;10.20;;;5.97;;
24677;SDS011;12800;53.094;8.778;2022-12-18T11:47:38;12.10;;;7.00;;
24677;SDS011;12800;53.094;8.778;2022-12-18T11:50:28;9.37;;;6.60;;
24677;SDS011;12800;53.094;8.778;2022-12-18T11:52:58;12.10;;;5.87;;
24677;SDS011;12800;53.094;8.778;2022-12-18T11:55:41;9.30;;;6.23;;
24677;SDS011;12800;53.094;8.778;2022-12-18T12:00:52;9.20;;;5.97;;
24677;SDS011;12800;53.094;8.778;2022-12-18T12:07:07;8.43;;;5.83;;
24677;SDS011;12800;53.094;8.778;2022-12-18T12:21:09;8.20;;;5.60;;
24677;SDS011;12800;53.094;8.778;2022-12-18T12:23:51;8.20;;;5.60;;
24677;SDS011;12800;53.094;8.778;2022-12-18T12:26:39;9.73;;;5.80;;
24677;SDS011;12800;53.094;8.778;2022-12-18T12:29:27;10.47;;;6.20;;
24677;SDS011;12800;53.094;8.778;2022-12-18T12:37:18;8.40;;;6.00;;
24677;SDS011;12800;53.094;8.778;2022-12-18T12:40:02;10.30;;;6.03;;
24677;SDS011;12800;53.094;8.778;2022-12-18T12:42:45;9.00;;;6.47;;
24677;SDS011;12800;53.094;8.778;2022-12-18T12:45:36;7.37;;;5.47;;
24677;SDS011;12800;53.094;8.778;2022-12-18T12:48:27;9.03;;;5.13;;
24677;SDS011;12800;53.094;8.778;2022-12-18T12:51:10;9.10;;;6.20;;
24677;SDS011;12800;53.094;8.778;2022-12-18T12:53:43;7.77;;;5.63;;
24677;SDS011;12800;53.094;8.778;2022-12-18T12:56:11;11.00;;;5.80;;
24677;SDS011;12800;53.094;8.778;2022-12-18T12:58:47;7.90;;;5.60;;
24677;SDS011;12800;53.094;8.778;2022-12-18T13:07:20;10.10;;;5.80;;
24677;SDS011;12800;53.094;8.778;2022-12-18T13:15:47;10.43;;;6.30;;
24677;SDS011;12800;53.094;8.778;2022-12-18T13:21:07;8.70;;;6.47;;
24677;SDS011;12800;53.094;8.778;2022-12-18T13:23:40;9.50;;;6.43;;
24677;SDS011;12800;53.094;8.778;2022-12-18T13:30:58;11.50;;;6.73;;
24677;SDS011;12800;53.094;8.778;2022-12-18T13:35:52;9.70;;;6.50;;
24677;SDS011;12800;53.094;8.778;2022-12-18T13:43:44;9.23;;;6.03;;
24677;SDS011;12800;53.094;8.778;2022-12-18T13:48:54;8.37;;;5.87;;
24677;SDS011;12800;53.094;8.778;2022-12-18T13:51:39;10.60;;;6.53;;
24677;SDS011;12800;53.094;8.778;2022-12-18T13:56:47;9.23;;;6.07;;
24677;SDS011;12800;53.094;8.778;2022-12-18T13:59:32;8.97;;;6.20;;
24677;SDS011;12800;53.094;8.778;2022-12-18T14:02:01;9.77;;;6.07;;
24677;SDS011;12800;53.094;8.778;2022-12-18T14:04:38;8.10;;;5.57;;
24677;SDS011;12800;53.094;8.778;2022-12-18T14:07:04;9.10;;;6.90;;
24677;SDS011;12800;53.094;8.778;2022-12-18T14:09:36;10.17;;;6.70;;
24677;SDS011;12800;53.094;8.778;2022-12-18T14:12:05;9.80;;;6.80;;
24677;SDS011;12800;53.094;8.778;2022-12-18T14:14:50;8.37;;;5.67;;
24677;SDS011;12800;53.094;8.778;2022-12-18T14:17:17;11.03;;;6.43;;
24677;SDS011;12800;53.094;8.778;2022-12-18T14:19:48;9.33;;;5.90;;
24677;SDS011;12800;53.094;8.778;2022-12-18T14:22:23;9.80;;;5.87;;
24677;SDS011;12800;53.094;8.778;2022-12-18T14:28:42;7.63;;;5.77;;
24677;SDS011;12800;53.094;8.778;2022-12-18T14:30:39;9.47;;;7.17;;
24677;SDS011;12800;53.094;8.778;2022-12-18T14:33:11;7.07;;;5.33;;
24677;SDS011;12800;53.094;8.778;2022-12-18T14:35:52;7.63;;;5.97;;
24677;SDS011;12800;53.094;8.778;2022-12-18T14:38:29;11.03;;;5.97;;
24677;SDS011;12800;53.094;8.778;2022-12-18T14:43:28;9.17;;;5.30;;
24677;SDS011;12800;53.094;8.778;2022-12-18T14:45:59;9.83;;;5.63;;
24677;SDS011;12800;53.094;8.778;2022-12-18T14:48:36;7.80;;;5.80;;
24677;SDS011;12800;53.094;8.778;2022-12-18T14:51:06;9.73;;;5.63;;
24677;SDS011;12800;53.094;8.778;2022-12-18T14:53:45;12.43;;;6.00;;
24677;SDS011;12800;53.094;8.778;2022-12-18T14:56:15;8.23;;;5.47;;
24677;SDS011;12800;53.094;8.778;2022-12-18T14:58:49;13.03;;;5.90;;
24677;SDS011;12800;53.094;8.778;2022-12-18T15:01:25;12.27;;;5.97;;
24677;SDS011;12800;53.094;8.778;2022-12-18T15:03:57;9.33;;;5.30;;
24677;SDS011;12800;53.094;8.778;2022-12-18T15:06:26;7.67;;;5.03;;
24677;SDS011;12800;53.094;8.778;2022-12-18T15:09:00;9.63;;;5.87;;
24677;SDS011;12800;53.094;8.778;2022-12-18T15:11:33;10.83;;;6.07;;
24677;SDS011;12800;53.094;8.778;2022-12-18T15:14:21;9.93;;;6.00;;
24677;SDS011;12800;53.094;8.778;2022-12-18T15:17:14;10.07;;;5.97;;
24677;SDS011;12800;53.094;8.778;2022-12-18T15:19:47;11.47;;;6.33;;
24677;SDS011;12800;53.094;8.778;2022-12-18T15:22:48;11.73;;;6.60;;
24677;SDS011;12800;53.094;8.778;2022-12-18T15:25:22;10.40;;;5.93;;
24677;SDS011;12800;53.094;8.778;2022-12-18T15:27:55;8.27;;;5.53;;
24677;SDS011;12800;53.094;8.778;2022-12-18T15:30:22;9.47;;;5.87;;
24677;SDS011;12800;53.094;8.778;2022-12-18T15:32:48;10.43;;;6.20;;
24677;SDS011;12800;53.094;8.778;2022-12-18T15:37:42;8.83;;;5.40;;
24677;SDS011;12800;53.094;8.778;2022-12-18T15:40:16;8.67;;;5.83;;
24677;SDS011;12800;53.094;8.778;2022-12-18T15:42:46;8.50;;;5.93;;
24677;SDS011;12800;53.094;8.778;2022-12-18T15:45:31;12.23;;;7.40;;
24677;SDS011;12800;53.094;8.778;2022-12-18T15:47:57;10.30;;;5.90;;
24677;SDS011;12800;53.094;8.778;2022-12-18T15:50:24;11.03;;;5.93;;
24677;SDS011;12800;53.094;8.778;2022-12-18T15:52:51;10.13;;;6.07;;
24677;SDS011;12800;53.094;8.778;2022-12-18T15:55:20;10.67;;;5.43;;
24677;SDS011;12800;53.094;8.778;2022-12-18T15:58:06;9.93;;;6.90;;
24677;SDS011;12800;53.094;8.778;2022-12-18T16:00:33;9.37;;;5.23;;
24677;SDS011;12800;53.094;8.778;2022-12-18T16:03:01;9.83;;;5.90;;
24677;SDS011;12800;53.094;8.778;2022-12-18T16:05:28;10.90;;;6.00;;
24677;SDS011;12800;53.094;8.778;2022-12-18T16:07:53;10.00;;;5.67;;
24677;SDS011;12800;53.094;8.778;2022-12-18T16:10:19;9.90;;;5.97;;
24677;SDS011;12800;53.094;8.778;2022-12-18T16:12:45;9.47;;;6.07;;
24677;SDS011;12800;53.094;8.778;2022-12-18T16:15:14;10.23;;;5.83;;
24677;SDS011;12800;53.094;8.778;2022-12-18T16:17:41;9.50;;;5.83;;
24677;SDS011;12800;53.094;8.778;2022-12-18T16:20:20;10.50;;;6.57;;
24677;SDS011;12800;53.094;8.778;2022-12-18T16:22:47;10.37;;;5.80;;
24677;SDS011;12800;53.094;8.778;2022-12-18T16:25:24;11.53;;;5.97;;
24677;SDS011;12800;53.094;8.778;2022-12-18T16:27:51;11.30;;;6.43;;
24677;SDS011;12800;53.094;8.778;2022-12-18T16:30:20;8.33;;;6.03;;
24677;SDS011;12800;53.094;8.778;2022-12-18T16:32:48;9.37;;;6.07;;
24677;SDS011;12800;53.094;8.778;2022-12-18T16:35:16;7.97;;;5.60;;
24677;SDS011;12800;53.094;8.778;2022-12-18T16:37:42;9.57;;;6.07;;
24677;SDS011;12800;53.094;8.778;2022-12-18T16:40:10;11.93;;;6.27;;
24677;SDS011;12800;53.094;8.778;2022-12-18T16:42:38;8.10;;;6.07;;
24677;SDS011;12800;53.094;8.778;2022-12-18T16:45:05;11.27;;;6.70;;
24677;SDS011;12800;53.094;8.778;2022-12-18T16:47:32;12.33;;;6.63;;
24677;SDS011;12800;53.094;8.778;2022-12-18T16:49:58;9.20;;;6.30;;
24677;SDS011;12800;53.094;8.778;2022-12-18T16:52:24;10.37;;;7.40;;